createdAt,value
2019-02-28T00:00:43.801Z,13.62
2019-02-28T00:03:12.237Z,13.28
2019-02-28T00:05:40.673Z,14.25
2019-02-28T00:08:09.101Z,15.78
2019-02-28T00:10:37.544Z,13.48
2019-02-28T00:13:06.306Z,12.33
2019-02-28T00:15:34.745Z,13.48
2019-02-28T00:18:03.742Z,10.53
2019-02-28T00:20:32.654Z,12.37
2019-02-28T00:23:01.474Z,12.65
2019-02-28T00:25:29.927Z,14.55
2019-02-28T00:27:58.341Z,11.12
2019-02-28T00:30:26.859Z,11.63
2019-02-28T00:32:56.422Z,12.82
2019-02-28T00:35:25.561Z,13.22
2019-02-28T00:37:56.619Z,11.68
2019-02-28T00:40:24.119Z,10.00
2019-02-28T00:42:52.538Z,11.18
2019-02-28T00:45:21.013Z,9.73
2019-02-28T00:47:49.481Z,13.75
2019-02-28T00:50:18.017Z,10.88
2019-02-28T00:52:46.545Z,13.88
2019-02-28T00:55:15.541Z,12.28
2019-02-28T00:57:44.261Z,9.78
2019-02-28T01:00:17.845Z,9.38
2019-02-28T01:02:52.166Z,9.95
2019-02-28T01:05:16.766Z,11.30
2019-02-28T01:07:48.152Z,8.85
2019-02-28T01:10:15.535Z,9.18
2019-02-28T01:12:44.289Z,10.88
2019-02-28T01:15:16.989Z,11.35
2019-02-28T01:17:45.487Z,8.83
2019-02-28T01:20:16.028Z,10.63
2019-02-28T01:22:44.846Z,10.58
2019-02-28T01:25:17.978Z,8.10
2019-02-28T01:27:46.453Z,12.37
2019-02-28T01:30:17.619Z,9.20
2019-02-28T01:32:49.941Z,7.58
2019-02-28T01:35:16.262Z,9.98
2019-02-28T01:37:44.686Z,8.70
2019-02-28T01:40:16.923Z,9.15
2019-02-28T01:42:45.337Z,9.78
2019-02-28T01:45:14.621Z,9.13
2019-02-28T01:47:43.052Z,7.87
2019-02-28T01:50:12.736Z,8.28
2019-02-28T01:52:44.842Z,8.80
2019-02-28T01:55:11.818Z,8.58
2019-02-28T01:57:44.150Z,10.10
2019-02-28T02:00:13.421Z,8.25
2019-02-28T02:02:41.846Z,9.43
2019-02-28T02:05:10.257Z,9.90
2019-02-28T02:07:38.810Z,8.35
2019-02-28T02:10:14.430Z,8.10
2019-02-28T02:12:42.934Z,7.30
2019-02-28T02:15:11.965Z,7.85
2019-02-28T02:17:40.431Z,9.68
2019-02-28T02:20:13.516Z,10.88
2019-02-28T02:22:44.542Z,5.62
2019-02-28T02:25:12.602Z,8.98
2019-02-28T02:27:41.082Z,9.15
2019-02-28T02:30:15.958Z,7.45
2019-02-28T02:32:44.857Z,7.47
2019-02-28T02:35:13.870Z,7.35
2019-02-28T02:37:42.340Z,8.50
2019-02-28T02:40:13.221Z,6.35
2019-02-28T02:42:47.206Z,8.95
2019-02-28T02:45:15.958Z,6.70
2019-02-28T02:47:44.460Z,6.97
2019-02-28T02:50:16.006Z,9.50
2019-02-28T02:52:44.506Z,10.35
2019-02-28T02:55:14.606Z,9.98
2019-02-28T02:57:43.112Z,10.35
2019-02-28T03:00:16.415Z,8.98
2019-02-28T03:02:44.966Z,9.25
2019-02-28T03:05:13.823Z,9.48
2019-02-28T03:07:42.393Z,11.75
2019-02-28T03:10:17.311Z,13.00
2019-02-28T03:12:43.569Z,11.22
2019-02-28T03:15:14.923Z,9.40
2019-02-28T03:17:47.011Z,10.85
2019-02-28T03:20:14.344Z,8.18
2019-02-28T03:22:42.850Z,6.80
2019-02-28T03:25:15.378Z,9.90
2019-02-28T03:27:43.792Z,6.90
2019-02-28T03:30:28.892Z,9.65
2019-02-28T03:32:51.436Z,7.12
2019-02-28T03:35:19.845Z,7.90
2019-02-28T03:37:48.322Z,10.15
2019-02-28T03:40:16.738Z,10.23
2019-02-28T03:42:45.215Z,9.95
2019-02-28T03:45:15.313Z,10.53
2019-02-28T03:47:43.851Z,9.73
2019-02-28T03:50:12.795Z,8.60
2019-02-28T03:52:43.763Z,10.60
2019-02-28T03:55:13.730Z,11.65
2019-02-28T03:57:42.194Z,11.03
2019-02-28T04:00:24.328Z,11.18
2019-02-28T04:02:57.372Z,12.75
2019-02-28T04:05:28.188Z,9.93
2019-02-28T04:07:54.808Z,9.75
2019-02-28T04:10:23.306Z,9.45
2019-02-28T04:12:51.792Z,11.05
2019-02-28T04:15:21.087Z,14.25
2019-02-28T04:17:49.837Z,13.28
2019-02-28T04:20:18.527Z,9.38
2019-02-28T04:22:47.065Z,9.65
2019-02-28T04:25:19.204Z,9.15
2019-02-28T04:27:45.662Z,9.95
2019-02-28T04:30:15.151Z,10.72
2019-02-28T04:32:43.575Z,13.45
2019-02-28T04:35:12.159Z,10.70
2019-02-28T04:37:44.586Z,13.95
2019-02-28T04:40:13.793Z,13.20
2019-02-28T04:42:42.552Z,12.63
2019-02-28T04:45:12.929Z,14.87
2019-02-28T04:47:41.771Z,12.13
2019-02-28T04:50:12.440Z,13.48
2019-02-28T04:52:46.644Z,14.70
2019-02-28T04:55:11.566Z,13.10
2019-02-28T04:57:40.009Z,12.80
2019-02-28T05:00:13.538Z,16.17
2019-02-28T05:02:42.093Z,12.78
2019-02-28T05:05:12.613Z,14.07
2019-02-28T05:07:41.004Z,15.25
2019-02-28T05:10:10.603Z,14.65
2019-02-28T05:12:39.914Z,13.40
2019-02-28T05:15:11.557Z,14.65
2019-02-28T05:17:39.971Z,12.80
2019-02-28T05:20:11.029Z,14.13
2019-02-28T05:22:40.613Z,15.58
2019-02-28T05:25:17.561Z,21.07
2019-02-28T05:27:42.346Z,16.17
2019-02-28T05:30:18.019Z,19.90
2019-02-28T05:32:44.465Z,17.80
2019-02-28T05:35:13.024Z,14.68
2019-02-28T05:37:46.448Z,21.30
2019-02-28T05:40:14.414Z,17.45
2019-02-28T05:42:44.129Z,21.45
2019-02-28T05:45:14.941Z,19.00
2019-02-28T05:47:46.774Z,16.82
2019-02-28T05:50:16.599Z,21.95
2019-02-28T05:52:43.635Z,20.15
2019-02-28T05:55:12.522Z,26.55
2019-02-28T05:57:43.287Z,14.20
2019-02-28T06:00:13.797Z,15.95
2019-02-28T06:02:42.220Z,19.52
2019-02-28T06:05:11.958Z,16.82
2019-02-28T06:07:40.865Z,18.87
2019-02-28T06:10:11.298Z,19.07
2019-02-28T06:12:40.383Z,18.00
2019-02-28T06:15:12.011Z,16.50
2019-02-28T06:17:40.424Z,19.67
2019-02-28T06:20:10.791Z,17.35
2019-02-28T06:22:39.326Z,21.20
2019-02-28T06:25:09.395Z,19.95
2019-02-28T06:27:41.528Z,18.90
2019-02-28T06:30:13.574Z,20.50
2019-02-28T06:32:42.012Z,19.48
2019-02-28T06:35:16.121Z,18.75
2019-02-28T06:37:40.855Z,15.95
2019-02-28T06:40:15.356Z,21.05
2019-02-28T06:42:46.933Z,15.85
2019-02-28T06:45:37.621Z,22.35
2019-02-28T06:48:06.234Z,22.82
2019-02-28T06:50:34.661Z,22.48
2019-02-28T06:53:03.142Z,24.40
2019-02-28T06:55:31.553Z,18.25
2019-02-28T06:58:00.262Z,16.75
2019-02-28T07:00:28.689Z,24.00
2019-02-28T07:02:57.101Z,17.05
2019-02-28T07:05:26.313Z,21.27
2019-02-28T07:07:54.919Z,15.10
2019-02-28T07:10:23.377Z,19.02
2019-02-28T07:12:52.093Z,16.35
2019-02-28T07:15:24.825Z,16.05
2019-02-28T07:17:50.905Z,19.40
2019-02-28T07:20:19.874Z,14.70
2019-02-28T07:22:48.315Z,13.40
2019-02-28T07:25:16.730Z,16.23
2019-02-28T07:27:45.181Z,13.13
2019-02-28T07:30:18.757Z,14.00
2019-02-28T07:32:45.601Z,11.87
2019-02-28T07:35:14.889Z,32.67
2019-02-28T07:37:43.360Z,18.87
2019-02-28T07:40:16.368Z,17.00
2019-02-28T07:42:45.549Z,12.60
2019-02-28T07:45:15.297Z,13.90
2019-02-28T07:47:43.827Z,13.10
2019-02-28T07:50:14.332Z,14.67
2019-02-28T07:52:42.790Z,11.93
2019-02-28T07:55:13.429Z,12.93
2019-02-28T07:57:41.960Z,13.23
2019-02-28T08:00:23.945Z,16.70
2019-02-28T08:02:52.361Z,14.13
2019-02-28T08:05:20.769Z,11.63
2019-02-28T08:07:51.915Z,22.43
2019-02-28T08:10:21.921Z,1578.20
2019-02-28T08:12:50.361Z,837.50
2019-02-28T08:15:23.258Z,558.33
2019-02-28T08:17:52.054Z,198.03
2019-02-28T08:20:21.083Z,1999.90
2019-02-28T08:22:49.509Z,801.10
2019-02-28T08:25:17.966Z,703.00
2019-02-28T08:27:46.457Z,400.00
2019-02-28T08:30:20.890Z,813.90
2019-02-28T08:32:49.473Z,643.20
2019-02-28T08:35:17.933Z,601.47
2019-02-28T08:37:46.437Z,836.87
2019-02-28T08:40:26.773Z,871.37
2019-02-28T08:42:55.649Z,873.03
2019-02-28T08:45:24.090Z,723.70
2019-02-28T08:47:55.703Z,387.27
2019-02-28T08:50:26.631Z,394.00
2019-02-28T08:53:00.416Z,371.20
2019-02-28T08:55:29.440Z,198.17
2019-02-28T08:58:05.228Z,184.77
2019-02-28T09:00:32.796Z,147.07
2019-02-28T09:03:00.709Z,149.17
2019-02-28T09:05:30.084Z,419.93
2019-02-28T09:07:58.848Z,615.87
2019-02-28T09:10:27.538Z,575.83
2019-02-28T09:12:56.054Z,581.37
2019-02-28T09:15:29.991Z,533.50
2019-02-28T09:17:58.486Z,569.87
2019-02-28T09:20:25.498Z,585.70
2019-02-28T09:22:54.262Z,419.03
2019-02-28T09:25:23.938Z,308.17
2019-02-28T09:27:52.390Z,440.77
2019-02-28T09:30:32.440Z,263.73
2019-02-28T09:33:01.055Z,306.80
2019-02-28T09:35:29.558Z,237.83
2019-02-28T09:38:00.071Z,185.50
2019-02-28T09:40:29.633Z,195.63
2019-02-28T09:42:58.693Z,166.30
2019-02-28T09:45:34.182Z,135.87
2019-02-28T09:48:02.866Z,149.60
2019-02-28T09:50:33.014Z,76.67
2019-02-28T09:53:01.413Z,78.73
2019-02-28T09:55:34.317Z,73.83
2019-02-28T09:58:00.057Z,64.37
2019-02-28T10:00:29.062Z,62.80
2019-02-28T10:02:57.573Z,52.43
2019-02-28T10:05:26.015Z,54.70
2019-02-28T10:07:54.433Z,53.00
2019-02-28T10:10:24.952Z,55.43
2019-02-28T10:12:53.458Z,59.90
2019-02-28T10:15:22.701Z,56.30
2019-02-28T10:17:51.224Z,90.53
2019-02-28T10:20:26.580Z,58.90
2019-02-28T10:22:51.933Z,52.07
2019-02-28T10:25:20.477Z,54.10
2019-02-28T10:27:49.002Z,40.77
2019-02-28T10:30:31.196Z,26.20
2019-02-28T10:32:54.373Z,22.80
2019-02-28T10:35:22.854Z,22.80
2019-02-28T10:37:57.379Z,21.03
2019-02-28T10:40:45.532Z,24.70
2019-02-28T10:43:15.530Z,15.57
2019-02-28T10:45:45.996Z,17.03
2019-02-28T10:48:14.281Z,18.83
2019-02-28T10:50:42.683Z,19.83
2019-02-28T10:53:11.138Z,26.40
2019-02-28T10:55:39.614Z,14.90
2019-02-28T10:58:08.174Z,16.53
2019-02-28T11:00:42.257Z,17.97
2019-02-28T11:03:10.893Z,19.67
2019-02-28T11:05:42.335Z,13.20
2019-02-28T11:08:14.808Z,21.50
2019-02-28T11:10:45.327Z,19.57
2019-02-28T11:13:16.299Z,19.23
2019-02-28T11:15:48.368Z,19.47
2019-02-28T11:18:15.809Z,23.17
2019-02-28T11:20:44.370Z,23.43
2019-02-28T11:23:15.013Z,29.70
2019-02-28T11:25:43.529Z,23.23
2019-02-28T11:28:13.005Z,25.03
2019-02-28T11:30:44.647Z,20.03
2019-02-28T11:33:12.841Z,25.93
2019-02-28T11:35:41.357Z,22.93
2019-02-28T11:38:10.216Z,23.63
2019-02-28T11:40:40.410Z,25.83
2019-02-28T11:43:09.374Z,20.53
2019-02-28T11:45:41.241Z,23.50
2019-02-28T11:48:20.497Z,19.47
2019-02-28T11:50:48.991Z,18.90
2019-02-28T11:53:19.057Z,24.83
2019-02-28T11:55:47.772Z,20.37
2019-02-28T11:58:17.591Z,19.37
2019-02-28T12:00:46.385Z,30.03
2019-02-28T12:03:15.130Z,23.87
2019-02-28T12:05:43.548Z,22.47
2019-02-28T12:08:12.105Z,19.77
2019-02-28T12:10:40.517Z,19.70
2019-02-28T12:13:10.883Z,17.20
2019-02-28T12:15:40.694Z,14.97
2019-02-28T12:18:09.145Z,21.27
2019-02-28T12:20:37.586Z,29.07
2019-02-28T12:23:06.031Z,33.60
2019-02-28T12:25:34.516Z,27.13
2019-02-28T12:28:06.361Z,30.10
2019-02-28T12:30:34.154Z,31.23
2019-02-28T12:33:02.618Z,32.90
2019-02-28T12:35:37.437Z,40.33
2019-02-28T12:38:01.366Z,42.20
2019-02-28T12:40:32.955Z,48.10
2019-02-28T12:43:02.100Z,53.90
2019-02-28T12:45:35.293Z,55.80
2019-02-28T12:48:03.799Z,52.73
2019-02-28T12:50:32.409Z,46.80
2019-02-28T12:53:01.093Z,55.37
2019-02-28T12:55:29.509Z,53.47
2019-02-28T12:57:58.676Z,55.27
2019-02-28T13:00:33.242Z,53.30
2019-02-28T13:03:01.739Z,52.43
2019-02-28T13:05:30.791Z,54.10
2019-02-28T13:07:59.233Z,57.47
2019-02-28T13:10:28.601Z,68.27
2019-02-28T13:13:05.600Z,80.37
2019-02-28T13:15:28.639Z,72.80
2019-02-28T13:17:57.065Z,79.37
2019-02-28T13:20:33.714Z,72.50
2019-02-28T13:23:01.220Z,76.63
2019-02-28T13:25:29.814Z,96.30
2019-02-28T13:27:58.324Z,124.53
2019-02-28T13:30:27.767Z,59.60
2019-02-28T13:32:56.581Z,56.93
2019-02-28T13:35:32.874Z,46.97
2019-02-28T13:38:01.357Z,41.03
2019-02-28T13:40:36.973Z,31.30
2019-02-28T13:43:05.712Z,37.23
2019-02-28T13:45:34.121Z,24.77
2019-02-28T13:48:03.521Z,23.33
2019-02-28T13:50:36.664Z,21.90
2019-02-28T13:53:17.357Z,23.20
2019-02-28T13:55:36.931Z,21.53
2019-02-28T13:58:05.796Z,26.13
2019-02-28T14:00:35.761Z,26.37
2019-02-28T14:03:09.676Z,24.73
2019-02-28T14:05:40.816Z,28.53
2019-02-28T14:08:11.167Z,31.10
2019-02-28T14:10:39.003Z,24.07
2019-02-28T14:13:08.225Z,25.00
2019-02-28T14:15:42.133Z,21.87
2019-02-28T14:18:11.527Z,23.43
2019-02-28T14:20:40.311Z,27.03
2019-02-28T14:23:09.193Z,29.20
2019-02-28T14:25:39.770Z,23.63
2019-02-28T14:28:08.310Z,23.53
2019-02-28T14:30:37.091Z,23.67
2019-02-28T14:33:05.793Z,25.70
2019-02-28T14:35:36.646Z,27.03
2019-02-28T14:38:05.028Z,24.63
2019-02-28T14:40:33.497Z,23.97
2019-02-28T14:43:02.002Z,25.53
2019-02-28T14:45:33.488Z,36.40
2019-02-28T14:48:04.333Z,22.90
2019-02-28T14:50:32.188Z,28.50
2019-02-28T14:53:00.605Z,24.50
2019-02-28T14:55:29.290Z,27.37
2019-02-28T14:57:59.243Z,28.33
2019-02-28T15:00:30.053Z,33.77
2019-02-28T15:03:03.108Z,29.83
2019-02-28T15:05:32.363Z,37.50
2019-02-28T15:08:01.330Z,37.83
2019-02-28T15:10:34.290Z,37.57
2019-02-28T15:13:01.394Z,32.63
2019-02-28T15:15:29.873Z,38.00
2019-02-28T15:17:58.306Z,44.30
2019-02-28T15:20:31.519Z,47.03
2019-02-28T15:22:59.319Z,48.80
2019-02-28T15:25:29.311Z,49.50
2019-02-28T15:27:57.734Z,43.50
2019-02-28T15:30:35.070Z,47.27
2019-02-28T15:33:03.631Z,49.47
2019-02-28T15:35:32.190Z,46.63
2019-02-28T15:38:00.663Z,50.50
2019-02-28T15:40:38.152Z,53.43
2019-02-28T15:43:06.823Z,52.47
2019-02-28T15:45:36.209Z,57.80
2019-02-28T15:48:05.673Z,53.13
2019-02-28T15:50:34.174Z,55.43
2019-02-28T15:53:02.657Z,75.60
2019-02-28T15:55:31.089Z,128.87
2019-02-28T15:58:02.743Z,86.17
2019-02-28T16:00:31.580Z,94.23
2019-02-28T16:03:00.161Z,65.73
2019-02-28T16:05:28.649Z,72.70
2019-02-28T16:07:57.943Z,139.17
2019-02-28T16:10:31.827Z,217.73
2019-02-28T16:13:00.544Z,286.03
2019-02-28T16:15:29.231Z,312.07
2019-02-28T16:17:57.854Z,441.97
2019-02-28T16:20:28.669Z,535.97
2019-02-28T16:22:56.777Z,618.87
2019-02-28T16:25:42.537Z,630.37
2019-02-28T16:28:11.204Z,580.27
2019-02-28T16:30:40.134Z,667.60
2019-02-28T16:33:08.661Z,715.53
2019-02-28T16:35:37.221Z,570.07
2019-02-28T16:38:10.087Z,553.77
2019-02-28T16:40:38.554Z,426.13
2019-02-28T16:43:07.078Z,329.07
2019-02-28T16:45:43.277Z,281.70
2019-02-28T16:48:11.790Z,281.83
2019-02-28T16:50:41.489Z,198.80
2019-02-28T16:53:16.266Z,173.53
2019-02-28T16:55:44.861Z,145.97
2019-02-28T16:58:13.391Z,126.10
2019-02-28T17:00:42.443Z,187.27
2019-02-28T17:03:12.094Z,1999.90
2019-02-28T17:05:40.521Z,1999.90
2019-02-28T17:08:09.492Z,1999.90
2019-02-28T17:10:40.035Z,1999.90
2019-02-28T17:13:15.986Z,1999.90
2019-02-28T17:16:04.092Z,1999.90
2019-02-28T17:18:34.249Z,1999.90
2019-02-28T17:21:02.818Z,602.80
2019-02-28T17:23:33.751Z,795.80
2019-02-28T17:26:01.441Z,545.23
2019-02-28T17:28:49.368Z,1999.90
2019-02-28T17:31:34.726Z,1999.90
2019-02-28T17:34:03.340Z,425.57
2019-02-28T17:36:31.850Z,1999.90
2019-02-28T17:39:00.265Z,1999.90
2019-02-28T17:41:28.838Z,1999.90
2019-02-28T17:44:11.618Z,1999.90
2019-02-28T17:46:40.057Z,1999.90
2019-02-28T17:49:33.495Z,1999.90
2019-02-28T17:52:05.008Z,1999.90
2019-02-28T17:54:48.616Z,1999.90
2019-02-28T17:57:38.557Z,1999.90
2019-02-28T18:00:15.981Z,1999.90
2019-02-28T18:03:18.607Z,1999.90
2019-02-28T18:05:53.060Z,1999.90
2019-02-28T18:08:45.786Z,1999.90
2019-02-28T18:11:50.502Z,1999.90
2019-02-28T18:14:33.913Z,1999.90
2019-02-28T18:17:19.358Z,1999.90
2019-02-28T18:19:59.903Z,1999.90
2019-02-28T18:22:40.222Z,1999.90
2019-02-28T18:25:33.213Z,1999.90
2019-02-28T18:28:24.633Z,1999.90
2019-02-28T18:31:10.673Z,249.83
2019-02-28T18:33:45.649Z,1999.90
2019-02-28T18:36:16.686Z,577.13
2019-02-28T18:38:45.108Z,1999.90
2019-02-28T18:41:14.942Z,1999.90
2019-02-28T18:43:43.376Z,1406.43
2019-02-28T18:46:11.841Z,1999.90
2019-02-28T18:48:40.392Z,1999.90
2019-02-28T18:51:08.825Z,1999.90
2019-02-28T18:53:37.282Z,469.17
2019-02-28T18:56:05.812Z,427.87
2019-02-28T18:58:34.306Z,1999.90
2019-02-28T19:01:02.735Z,1999.90
2019-02-28T19:03:31.169Z,1087.10
2019-02-28T19:05:59.603Z,740.50
2019-02-28T19:08:28.028Z,812.23
2019-02-28T19:10:56.788Z,1095.77
2019-02-28T19:13:25.277Z,169.57
2019-02-28T19:15:53.699Z,193.23
2019-02-28T19:18:22.135Z,215.37
2019-02-28T19:20:50.548Z,65.27
2019-02-28T19:23:18.970Z,78.03
2019-02-28T19:25:50.022Z,99.70
2019-02-28T19:28:18.536Z,80.80
2019-02-28T19:30:46.978Z,101.50
2019-02-28T19:33:15.439Z,91.83
2019-02-28T19:35:43.875Z,60.33
2019-02-28T19:38:12.326Z,37.43
2019-02-28T19:40:40.732Z,22.80
2019-02-28T19:43:09.188Z,14.90
2019-02-28T19:45:40.907Z,19.00
2019-02-28T19:48:09.372Z,19.37
2019-02-28T19:50:37.815Z,15.23
2019-02-28T19:53:06.244Z,18.07
2019-02-28T19:55:34.728Z,20.47
2019-02-28T19:58:03.160Z,20.50
2019-02-28T20:00:31.565Z,19.60
2019-02-28T20:03:00.021Z,19.30
2019-02-28T20:05:30.489Z,17.00
2019-02-28T20:07:58.913Z,17.70
2019-02-28T20:10:27.342Z,16.57
2019-02-28T20:12:55.821Z,22.00
2019-02-28T20:15:25.977Z,18.00
2019-02-28T20:17:54.710Z,22.37
2019-02-28T20:20:26.605Z,21.17
2019-02-28T20:22:55.046Z,19.53
2019-02-28T20:25:23.541Z,21.50
2019-02-28T20:27:51.969Z,18.33
2019-02-28T20:30:22.525Z,17.87
2019-02-28T20:32:51.026Z,16.83
2019-02-28T20:35:26.170Z,22.07
2019-02-28T20:37:49.620Z,18.07
2019-02-28T20:40:20.851Z,19.17
2019-02-28T20:42:49.295Z,20.60
2019-02-28T20:45:17.745Z,17.47
2019-02-28T20:47:46.198Z,16.70
2019-02-28T20:50:27.262Z,15.73
2019-02-28T20:52:55.693Z,13.53
2019-02-28T20:55:24.354Z,15.70
2019-02-28T20:57:53.291Z,18.33
2019-02-28T21:00:23.425Z,18.00
2019-02-28T21:02:52.196Z,19.53
2019-02-28T21:05:20.883Z,18.73
2019-02-28T21:07:49.325Z,15.83
2019-02-28T21:10:17.889Z,14.87
2019-02-28T21:12:46.331Z,21.03
2019-02-28T21:15:14.922Z,18.10
2019-02-28T21:17:43.325Z,24.63
2019-02-28T21:20:13.969Z,18.90
2019-02-28T21:22:42.482Z,20.30
2019-02-28T21:25:15.429Z,19.57
2019-02-28T21:27:43.893Z,14.40
2019-02-28T21:30:17.318Z,19.30
2019-02-28T21:32:46.034Z,15.53
2019-02-28T21:35:16.210Z,18.30
2019-02-28T21:37:46.110Z,17.77
2019-02-28T21:40:19.695Z,14.90
2019-02-28T21:42:48.123Z,17.23
2019-02-28T21:45:21.839Z,15.80
2019-02-28T21:47:50.262Z,17.13
2019-02-28T21:50:18.759Z,16.37
2019-02-28T21:52:47.298Z,19.10
2019-02-28T21:55:16.675Z,14.53
2019-02-28T21:57:45.169Z,15.17
2019-02-28T22:00:36.103Z,16.57
2019-02-28T22:03:05.622Z,20.97
2019-02-28T22:05:34.035Z,16.07
2019-02-28T22:08:02.459Z,13.53
2019-02-28T22:10:31.074Z,15.20
2019-02-28T22:12:59.887Z,18.60
2019-02-28T22:15:28.472Z,20.50
2019-02-28T22:17:56.891Z,18.67
2019-02-28T22:20:25.389Z,13.13
2019-02-28T22:22:53.809Z,15.33
2019-02-28T22:25:22.228Z,16.83
2019-02-28T22:27:50.653Z,15.90
2019-02-28T22:30:36.917Z,21.17
2019-02-28T22:33:24.353Z,18.07
2019-02-28T22:36:03.659Z,14.53
2019-02-28T22:38:32.159Z,13.70
2019-02-28T22:41:00.583Z,17.10
2019-02-28T22:43:28.995Z,13.30
2019-02-28T22:45:57.434Z,10.90
2019-02-28T22:48:25.941Z,11.90
2019-02-28T22:50:54.354Z,16.00
2019-02-28T22:53:22.785Z,12.90
2019-02-28T22:55:51.193Z,14.73
2019-02-28T22:58:19.612Z,11.50
2019-02-28T23:01:04.564Z,12.87
2019-02-28T23:03:34.745Z,14.50
2019-02-28T23:06:03.170Z,8.97
2019-02-28T23:08:31.673Z,14.40
2019-02-28T23:11:00.188Z,13.23
2019-02-28T23:13:28.878Z,12.20
2019-02-28T23:15:57.318Z,11.90
2019-02-28T23:18:25.745Z,11.03
2019-02-28T23:20:54.181Z,8.60
2019-02-28T23:23:22.601Z,12.30
2019-02-28T23:25:51.036Z,12.03
2019-02-28T23:28:24.684Z,10.40
2019-02-28T23:31:16.014Z,13.27
2019-02-28T23:33:44.445Z,10.50
2019-02-28T23:36:12.854Z,11.77
2019-02-28T23:38:41.313Z,6.70
2019-02-28T23:41:09.737Z,15.43
2019-02-28T23:43:38.157Z,8.90
2019-02-28T23:46:06.638Z,9.20
2019-02-28T23:48:35.069Z,10.07
2019-02-28T23:51:03.520Z,7.87
2019-02-28T23:53:31.989Z,8.13
2019-02-28T23:56:00.466Z,8.93
2019-02-28T23:58:28.917Z,11.13
